createdAt,value
2017-07-19T00:00:04.437Z,28.15
2017-07-19T00:02:29.132Z,28.13
2017-07-19T00:04:53.825Z,28.09
2017-07-19T00:07:18.527Z,27.93
2017-07-19T00:09:28.609Z,27.83
2017-07-19T00:11:53.221Z,27.91
2017-07-19T00:14:17.806Z,27.88
2017-07-19T00:16:42.400Z,27.88
2017-07-19T00:18:58.451Z,27.78
2017-07-19T00:21:23.019Z,27.82
2017-07-19T00:23:47.531Z,27.75
2017-07-19T00:26:12.135Z,27.76
2017-07-19T00:28:36.732Z,27.58
2017-07-19T00:30:52.924Z,27.6
2017-07-19T00:33:09.022Z,27.22
2017-07-19T00:35:33.615Z,27.18
2017-07-19T00:37:58.209Z,27.25
2017-07-19T00:40:14.305Z,27.34
2017-07-19T00:42:15.789Z,27.53
2017-07-19T00:44:40.362Z,27.23
2017-07-19T00:47:04.916Z,27.1
2017-07-19T00:49:29.451Z,27.23
2017-07-19T00:51:54.010Z,27.16
2017-07-19T00:54:18.563Z,27.26
2017-07-19T00:56:43.109Z,27.33
2017-07-19T00:59:07.718Z,27.23
2017-07-19T01:01:32.401Z,27.4
2017-07-19T01:03:48.605Z,27.34
2017-07-19T01:06:13.191Z,27.41
2017-07-19T01:08:37.684Z,27.35
2017-07-19T01:11:02.228Z,27.41
2017-07-19T01:13:26.880Z,27.41
2017-07-19T01:15:43.076Z,27.48
2017-07-19T01:17:59.268Z,27.44
2017-07-19T01:20:23.776Z,27.53
2017-07-19T01:22:48.359Z,27.48
2017-07-19T01:25:04.553Z,27.4
2017-07-19T01:27:29.143Z,27.3
2017-07-19T01:29:53.738Z,27.45
2017-07-19T01:32:09.936Z,27.4
2017-07-19T01:34:26.959Z,27.35
2017-07-19T01:36:51.554Z,27.34
2017-07-19T01:39:07.641Z,27.23
2017-07-19T01:41:32.236Z,27.25
2017-07-19T01:43:56.733Z,27
2017-07-19T01:45:50.380Z,27.1
2017-07-19T01:48:14.852Z,26.92
2017-07-19T01:50:30.824Z,26.81
2017-07-19T01:52:32.289Z,26.71
2017-07-19T01:54:56.806Z,26.74
2017-07-19T01:56:32.614Z,26.83
2017-07-19T01:58:57.128Z,26.82
2017-07-19T02:01:13.132Z,26.52
2017-07-19T02:03:14.588Z,26.67
2017-07-19T02:05:30.704Z,26.45
2017-07-19T02:07:38.297Z,26.37
2017-07-19T02:09:54.229Z,26.19
2017-07-19T02:12:10.271Z,26.23
2017-07-19T02:14:17.877Z,26.03
2017-07-19T02:16:42.290Z,26.23
2017-07-19T02:18:58.250Z,26.11
2017-07-19T02:21:22.758Z,26.33
2017-07-19T02:23:47.242Z,26.34
2017-07-19T02:26:11.735Z,26.48
2017-07-19T02:28:36.225Z,26.55
2017-07-19T02:31:00.716Z,26.42
2017-07-19T02:33:25.208Z,26.27
2017-07-19T02:35:49.703Z,26.11
2017-07-19T02:38:14.154Z,26.19
2017-07-19T02:40:38.683Z,26.16
2017-07-19T02:43:03.177Z,26.33
2017-07-19T02:45:20.193Z,26.3
2017-07-19T02:47:36.286Z,26.37
2017-07-19T02:50:00.780Z,26.27
2017-07-19T02:52:25.267Z,26.19
2017-07-19T02:54:49.765Z,26.19
2017-07-19T02:57:14.253Z,26.11
2017-07-19T02:59:21.849Z,26.3
2017-07-19T03:01:46.339Z,26.16
2017-07-19T03:04:10.831Z,26.41
2017-07-19T03:06:35.326Z,26.42
2017-07-19T03:08:59.758Z,26.34
2017-07-19T03:11:24.304Z,26.39
2017-07-19T03:13:40.230Z,26.46
2017-07-19T03:15:56.298Z,26.45
2017-07-19T03:18:12.283Z,26.46
2017-07-19T03:20:22.300Z,26.59
2017-07-19T03:22:46.754Z,26.63
2017-07-19T03:25:11.180Z,26.44
2017-07-19T03:27:35.605Z,26.52
2017-07-19T03:30:00.098Z,26.46
2017-07-19T03:32:24.596Z,26.18
2017-07-19T03:34:49.081Z,26.19
2017-07-19T03:37:05.078Z,26.34
2017-07-19T03:39:29.564Z,26.19
2017-07-19T03:41:54.057Z,26.22
2017-07-19T03:44:18.546Z,26.18
2017-07-19T03:46:43.039Z,26.24
2017-07-19T03:49:07.441Z,26.18
2017-07-19T03:51:31.924Z,26.18
2017-07-19T03:53:56.413Z,26.29
2017-07-19T03:56:12.512Z,26.08
2017-07-19T03:58:28.477Z,26.22
2017-07-19T04:00:52.889Z,26.24
2017-07-19T04:03:17.382Z,26.24
2017-07-19T04:05:41.878Z,26.37
2017-07-19T04:08:06.365Z,26.41
2017-07-19T04:10:30.760Z,26.44
2017-07-19T04:12:55.247Z,26.36
2017-07-19T04:15:11.340Z,26.56
2017-07-19T04:17:35.831Z,26.29
2017-07-19T04:20:00.324Z,26.36
2017-07-19T04:22:16.315Z,26.56
2017-07-19T04:24:40.744Z,26.55
2017-07-19T04:27:05.195Z,26.76
2017-07-19T04:29:12.789Z,26.83
2017-07-19T04:31:37.281Z,26.86
2017-07-19T04:33:53.378Z,26.96
2017-07-19T04:36:09.471Z,27.66
2017-07-19T04:38:34.067Z,28.18
2017-07-19T04:40:58.657Z,28.23
2017-07-19T04:43:23.250Z,29.42
2017-07-19T04:45:47.849Z,31.02
2017-07-19T04:48:12.552Z,31.74
2017-07-19T04:50:20.444Z,32.57
2017-07-19T04:52:45.349Z,33.36
2017-07-19T04:55:10.342Z,35.13
2017-07-19T04:57:35.458Z,36.63
2017-07-19T05:00:00.668Z,37.31
2017-07-19T05:02:26.075Z,38.58
2017-07-19T05:04:42.989Z,39.56
2017-07-19T05:07:00.007Z,41.51
2017-07-19T05:09:25.631Z,42.71
2017-07-19T05:11:51.407Z,43.16
2017-07-19T05:14:17.277Z,43.68
2017-07-19T05:16:43.305Z,44.32
2017-07-19T05:19:09.372Z,44.6
2017-07-19T05:21:35.567Z,46.18
2017-07-19T05:23:53.298Z,47.88
2017-07-19T05:26:19.731Z,49.18
2017-07-19T05:28:46.276Z,48.99
2017-07-19T05:31:12.801Z,50.15
2017-07-19T05:33:39.452Z,49.38
2017-07-19T05:35:57.595Z,49.76
2017-07-19T05:38:24.445Z,50.49
2017-07-19T05:40:17.918Z,51.4
2017-07-19T05:42:36.203Z,52.77
2017-07-19T05:45:03.161Z,52.29
2017-07-19T05:46:39.645Z,51.18
2017-07-19T05:48:49.479Z,52.38
2017-07-19T05:51:16.541Z,52.93
2017-07-19T05:53:43.719Z,53.05
2017-07-19T05:56:10.984Z,55.27
2017-07-19T05:58:38.339Z,55.23
2017-07-19T06:01:05.797Z,56.35
2017-07-19T06:03:25.707Z,56.82
2017-07-19T06:05:53.157Z,55.69
2017-07-19T06:07:54.800Z,56.18
2017-07-19T06:10:22.467Z,55.66
2017-07-19T06:12:50.133Z,56.06
2017-07-19T06:15:18.801Z,59.87
2017-07-19T06:17:46.594Z,57.84
2017-07-19T06:20:14.469Z,57.27
2017-07-19T06:22:42.257Z,59.1
2017-07-19T06:25:10.084Z,60.73
2017-07-19T06:27:38.082Z,60.73
2017-07-19T06:30:06.037Z,59.5
2017-07-19T06:32:34.137Z,59.42
2017-07-19T06:34:53.587Z,59.34
2017-07-19T06:37:21.651Z,57.47
2017-07-19T06:39:49.717Z,58.72
2017-07-19T06:42:17.803Z,60.3
2017-07-19T06:44:46.007Z,60.9
2017-07-19T06:47:14.285Z,60.49
2017-07-19T06:49:42.568Z,58.87
2017-07-19T06:52:10.951Z,53.62
2017-07-19T06:54:21.923Z,52.7
2017-07-19T06:56:50.243Z,51.73
2017-07-19T06:59:18.702Z,51.37
2017-07-19T07:01:46.991Z,51.05
2017-07-19T07:04:15.272Z,51.43
2017-07-19T07:06:43.446Z,50.97
2017-07-19T07:09:11.534Z,50.79
2017-07-19T07:11:39.561Z,49.71
2017-07-19T07:14:15.519Z,49.63
2017-07-19T07:16:43.019Z,47.18
2017-07-19T07:19:10.325Z,46.68
2017-07-19T07:21:37.559Z,46.18
2017-07-19T07:24:04.631Z,47.58
2017-07-19T07:26:31.654Z,47.8
2017-07-19T07:28:58.568Z,48.32
2017-07-19T07:31:25.634Z,46.28
2017-07-19T07:33:54.135Z,45.29
2017-07-19T07:36:22.268Z,44.77
2017-07-19T07:38:49.053Z,44.37
2017-07-19T07:41:18.344Z,44.4
2017-07-19T07:43:45.302Z,44.95
2017-07-19T07:46:03.540Z,43.76
2017-07-19T07:48:30.189Z,44.72
2017-07-19T07:50:56.902Z,45.78
2017-07-19T07:53:23.761Z,47.47
2017-07-19T07:55:50.288Z,47.19
2017-07-19T07:58:17.138Z,46.13
2017-07-19T08:00:43.895Z,46.28
2017-07-19T08:03:02.049Z,47
2017-07-19T08:05:28.772Z,48.03
2017-07-19T08:07:56.326Z,48.22
2017-07-19T08:10:22.500Z,49.22
2017-07-19T08:12:49.325Z,48.55
2017-07-19T08:15:16.286Z,48.34
2017-07-19T08:17:43.467Z,48.06
2017-07-19T08:20:11.019Z,47.8
2017-07-19T08:22:13.638Z,47.37
2017-07-19T08:24:32.130Z,47.44
2017-07-19T08:26:59.890Z,49.22
2017-07-19T08:29:15.471Z,49.74
2017-07-19T08:31:41.558Z,50.86
2017-07-19T08:34:08.575Z,50.36
2017-07-19T08:36:35.662Z,50.13
2017-07-19T08:39:02.756Z,49.75
2017-07-19T08:41:29.597Z,50.56
2017-07-19T08:43:56.779Z,50.31
2017-07-19T08:46:31.503Z,50.42
2017-07-19T08:48:58.766Z,48.64
2017-07-19T08:51:26.479Z,47.62
2017-07-19T08:53:53.443Z,49.12
2017-07-19T08:56:20.518Z,48.2
2017-07-19T08:58:47.488Z,48.99
2017-07-19T09:01:14.464Z,49.74
2017-07-19T09:03:43.455Z,50.68
2017-07-19T09:06:10.547Z,48.83
2017-07-19T09:08:37.346Z,47.4
2017-07-19T09:11:04.403Z,48.25
2017-07-19T09:13:31.245Z,47.61
2017-07-19T09:15:07.236Z,47.95
2017-07-19T09:17:41.014Z,49.18
2017-07-19T09:19:54.134Z,47.5
2017-07-19T09:22:20.961Z,48.42
2017-07-19T09:24:47.759Z,48.86
2017-07-19T09:27:14.515Z,47.04
2017-07-19T09:29:41.270Z,48.1
2017-07-19T09:32:09.059Z,47.34
2017-07-19T09:34:35.632Z,46.56
2017-07-19T09:37:02.325Z,47.15
2017-07-19T09:39:29.056Z,46.13
2017-07-19T09:41:55.910Z,46.16
2017-07-19T09:44:22.397Z,47.23
2017-07-19T09:46:49.104Z,46.4
2017-07-19T09:49:16.854Z,45.17
2017-07-19T09:51:51.196Z,44.76
2017-07-19T09:54:17.762Z,44.28
2017-07-19T09:56:44.454Z,44.95
2017-07-19T09:59:10.773Z,44.44
2017-07-19T10:01:37.358Z,45.33
2017-07-19T10:04:03.797Z,44.72
2017-07-19T10:06:30.211Z,44.22
2017-07-19T10:08:58.283Z,43.32
2017-07-19T10:11:25.590Z,42.59
2017-07-19T10:13:51.864Z,42.43
2017-07-19T10:16:19.060Z,41.39
2017-07-19T10:18:45.241Z,41.32
2017-07-19T10:21:11.418Z,41.23
2017-07-19T10:23:37.590Z,41.87
2017-07-19T10:26:03.777Z,42.56
2017-07-19T10:28:29.898Z,42.56
2017-07-19T10:30:32.285Z,42.66
2017-07-19T10:32:49.861Z,40.86
2017-07-19T10:35:15.969Z,41.98
2017-07-19T10:37:42.008Z,42.14
2017-07-19T10:40:07.997Z,41.3
2017-07-19T10:42:34.010Z,41.29
2017-07-19T10:44:59.960Z,41.45
2017-07-19T10:47:25.893Z,41.22
2017-07-19T10:49:51.960Z,40.95
2017-07-19T10:52:17.963Z,40.85
2017-07-19T10:54:43.956Z,41.12
2017-07-19T10:57:09.955Z,41.03
2017-07-19T10:59:36.875Z,40.9
2017-07-19T11:02:02.850Z,40.52
2017-07-19T11:04:28.740Z,39.88
2017-07-19T11:06:54.542Z,40.26
2017-07-19T11:09:20.393Z,40.66
2017-07-19T11:11:46.266Z,41.2
2017-07-19T11:14:12.161Z,40.76
2017-07-19T11:16:38.034Z,39.19
2017-07-19T11:19:03.897Z,39.05
2017-07-19T11:21:29.682Z,39.07
2017-07-19T11:23:55.516Z,38.88
2017-07-19T11:26:21.352Z,38.79
2017-07-19T11:28:47.154Z,39.93
2017-07-19T11:31:12.957Z,39.57
2017-07-19T11:33:38.728Z,40.35
2017-07-19T11:36:04.514Z,40.55
2017-07-19T11:38:30.372Z,38.95
2017-07-19T11:40:56.222Z,38.88
2017-07-19T11:43:22.067Z,38.88
2017-07-19T11:45:39.338Z,39.68
2017-07-19T11:48:05.173Z,39.2
2017-07-19T11:50:30.926Z,39.85
2017-07-19T11:52:56.658Z,39.29
2017-07-19T11:55:22.357Z,39.57
2017-07-19T11:57:48.091Z,39.48
2017-07-19T12:00:13.856Z,39.45
2017-07-19T12:02:39.669Z,39.61
2017-07-19T12:05:05.491Z,39.91
2017-07-19T12:07:31.290Z,39.98
2017-07-19T12:09:57.119Z,39.68
2017-07-19T12:12:23.284Z,39.68
2017-07-19T12:13:59.163Z,39.97
2017-07-19T12:16:24.896Z,40
2017-07-19T12:18:50.794Z,39.86
2017-07-19T12:21:16.615Z,39.1
2017-07-19T12:23:42.961Z,38.6
2017-07-19T12:26:08.902Z,38.7
2017-07-19T12:28:35.802Z,38.75
2017-07-19T12:30:51.572Z,39.03
2017-07-19T12:33:17.735Z,38.73
2017-07-19T12:35:38.890Z,39.11
2017-07-19T12:38:04.732Z,38.92
2017-07-19T12:40:07.309Z,38.85
2017-07-19T12:42:33.243Z,38.81
2017-07-19T12:44:59.034Z,38.92
2017-07-19T12:47:26.006Z,38.63
2017-07-19T12:49:52.017Z,38.13
2017-07-19T12:52:09.235Z,37.98
2017-07-19T12:54:35.102Z,37.82
2017-07-19T12:57:00.797Z,37.72
2017-07-19T12:59:26.402Z,37.83
2017-07-19T13:01:52.227Z,37.94
2017-07-19T13:04:17.887Z,38.19
2017-07-19T13:06:20.926Z,37.92
2017-07-19T13:08:46.612Z,37.85
2017-07-19T13:11:12.356Z,37.44
2017-07-19T13:13:29.899Z,37.91
2017-07-19T13:15:55.471Z,37.94
2017-07-19T13:18:21.067Z,38.14
2017-07-19T13:20:47.771Z,38.04
2017-07-19T13:23:13.507Z,38
2017-07-19T13:25:39.109Z,38.23
2017-07-19T13:28:04.845Z,38.1
2017-07-19T13:30:30.450Z,37.78
2017-07-19T13:32:56.182Z,37.73
2017-07-19T13:35:21.788Z,37.44
2017-07-19T13:37:47.408Z,38.13
2017-07-19T13:40:13.027Z,38.25
2017-07-19T13:42:39.697Z,37.9
2017-07-19T13:45:05.283Z,38.53
2017-07-19T13:47:30.918Z,38.54
2017-07-19T13:49:56.684Z,38.44
2017-07-19T13:52:22.356Z,38.92
2017-07-19T13:54:47.996Z,39.12
2017-07-19T13:57:13.689Z,39.29
2017-07-19T13:59:39.408Z,39.59
2017-07-19T14:02:05.266Z,39.68
2017-07-19T14:04:30.953Z,39.71
2017-07-19T14:06:56.776Z,40.13
2017-07-19T14:09:22.628Z,40.16
2017-07-19T14:11:48.343Z,40.46
2017-07-19T14:13:24.490Z,40.55
2017-07-19T14:15:26.313Z,40.62
2017-07-19T14:17:52.142Z,39.78
2017-07-19T14:20:17.975Z,39.01
2017-07-19T14:22:43.705Z,38.34
2017-07-19T14:25:09.472Z,38.84
2017-07-19T14:27:35.355Z,39.14
2017-07-19T14:30:01.266Z,39.59
2017-07-19T14:32:27.084Z,39.3
2017-07-19T14:34:52.903Z,39.29
2017-07-19T14:37:18.569Z,39
2017-07-19T14:39:44.276Z,38.32
2017-07-19T14:42:09.989Z,38.13
2017-07-19T14:44:35.702Z,37.83
2017-07-19T14:47:01.470Z,38.12
2017-07-19T14:49:27.057Z,38.09
2017-07-19T14:51:52.646Z,37.73
2017-07-19T14:54:18.232Z,37.54
2017-07-19T14:56:43.909Z,37.88
2017-07-19T14:59:09.491Z,37.94
2017-07-19T15:01:35.141Z,37.82
2017-07-19T15:04:00.770Z,37.43
2017-07-19T15:06:26.517Z,37.66
2017-07-19T15:08:52.162Z,37.61
2017-07-19T15:11:24.674Z,37.33
2017-07-19T15:13:35.553Z,37.82
2017-07-19T15:15:52.833Z,37.95
2017-07-19T15:18:31.936Z,37.86
2017-07-19T15:21:00.550Z,37.83
2017-07-19T15:23:26.055Z,37.97
2017-07-19T15:25:51.634Z,37.83
2017-07-19T15:28:17.302Z,37.41
2017-07-19T15:30:43.048Z,37.64
2017-07-19T15:33:08.880Z,37.18
2017-07-19T15:35:34.408Z,36.99
2017-07-19T15:37:59.909Z,36.92
2017-07-19T15:40:25.555Z,36.88
2017-07-19T15:42:51.033Z,36.92
2017-07-19T15:44:44.273Z,37.41
2017-07-19T15:47:09.770Z,37.66
2017-07-19T15:49:35.243Z,37.53
2017-07-19T15:51:37.014Z,37.38
2017-07-19T15:54:02.496Z,37.18
2017-07-19T15:56:28.030Z,37.38
2017-07-19T15:58:53.494Z,37.04
2017-07-19T16:01:18.984Z,37.22
2017-07-19T16:03:50.695Z,37.31
2017-07-19T16:06:21.772Z,37.19
2017-07-19T16:08:45.536Z,37.41
2017-07-19T16:11:11.052Z,36.76
2017-07-19T16:13:37.826Z,36.92
2017-07-19T16:16:03.315Z,36.73
2017-07-19T16:18:28.738Z,36.99
2017-07-19T16:20:54.134Z,37.15
2017-07-19T16:23:04.468Z,37.21
2017-07-19T16:25:29.952Z,36.51
2017-07-19T16:27:55.361Z,36.78
2017-07-19T16:30:12.264Z,36.67
2017-07-19T16:32:37.761Z,36.57
2017-07-19T16:35:04.289Z,36.6
2017-07-19T16:37:30.019Z,36.88
2017-07-19T16:39:57.761Z,36.88
2017-07-19T16:42:22.884Z,36.7
2017-07-19T16:44:48.398Z,36.51
2017-07-19T16:47:13.912Z,36.72
2017-07-19T16:49:30.812Z,36.76
2017-07-19T16:51:56.341Z,36.5
2017-07-19T16:54:04.758Z,36.44
2017-07-19T16:56:36.950Z,36.22
2017-07-19T16:59:03.228Z,36.45
2017-07-19T17:01:28.908Z,36.36
2017-07-19T17:03:55.887Z,36.22
2017-07-19T17:06:59.407Z,36.16
2017-07-19T17:08:43.852Z,35.98
2017-07-19T17:11:10.134Z,36.03
2017-07-19T17:13:13.201Z,36.18
2017-07-19T17:15:42.868Z,36.17
2017-07-19T17:18:09.423Z,36.14
2017-07-19T17:20:36.960Z,36.2
2017-07-19T17:22:59.645Z,35.9
2017-07-19T17:27:10.068Z,36.08
2017-07-19T17:29:35.417Z,36.22
2017-07-19T17:32:00.809Z,36.29
2017-07-19T17:34:26.304Z,36.26
2017-07-19T17:36:51.621Z,36.45
2017-07-19T17:39:17.938Z,36.29
2017-07-19T17:41:43.241Z,36.39
2017-07-19T17:44:08.745Z,36.24
2017-07-19T17:46:34.221Z,36.16
2017-07-19T17:48:59.561Z,36.26
2017-07-19T17:51:24.820Z,36.33
2017-07-19T17:53:50.348Z,36.24
2017-07-19T17:56:15.782Z,36.24
2017-07-19T17:58:41.115Z,36
2017-07-19T18:01:06.429Z,36.06
2017-07-19T18:03:31.820Z,36.01
2017-07-19T18:05:48.643Z,36.03
2017-07-19T18:08:13.993Z,35.88
2017-07-19T18:10:39.303Z,35.75
2017-07-19T18:13:05.670Z,35.63
2017-07-19T18:15:31.053Z,35.53
2017-07-19T18:17:56.454Z,35.41
2017-07-19T18:20:22.206Z,35.39
2017-07-19T18:22:47.526Z,35.42
2017-07-19T18:25:12.882Z,35.47
2017-07-19T18:27:29.777Z,35.44
2017-07-19T18:29:55.309Z,35.22
2017-07-19T18:32:20.496Z,35.13
2017-07-19T18:34:46.020Z,35.23
2017-07-19T18:37:12.176Z,35.22
2017-07-19T18:39:37.436Z,35.08
2017-07-19T18:42:02.885Z,34.97
2017-07-19T18:44:28.187Z,34.82
2017-07-19T18:46:53.362Z,34.89
2017-07-19T18:49:20.171Z,34.78
2017-07-19T18:51:22.784Z,34.75
2017-07-19T18:53:47.975Z,34.59
2017-07-19T18:56:14.282Z,34.26
2017-07-19T18:58:39.798Z,34.16
2017-07-19T19:01:05.874Z,34.21
2017-07-19T19:03:31.603Z,34.14
2017-07-19T19:05:56.754Z,34.26
2017-07-19T19:08:23.395Z,34.18
2017-07-19T19:10:48.759Z,34.09
2017-07-19T19:13:13.957Z,33.94
2017-07-19T19:15:39.133Z,33.84
2017-07-19T19:18:04.246Z,33.69
2017-07-19T19:20:29.444Z,33.69
2017-07-19T19:22:54.607Z,33.61
2017-07-19T19:25:19.805Z,33.66
2017-07-19T19:27:44.865Z,33.54
2017-07-19T19:29:55.064Z,33.28
2017-07-19T19:32:20.152Z,33.42
2017-07-19T19:34:45.269Z,33.2
2017-07-19T19:37:10.363Z,33
2017-07-19T19:39:35.470Z,33.04
2017-07-19T19:42:00.507Z,32.98
2017-07-19T19:44:25.565Z,32.98
2017-07-19T19:46:50.628Z,32.83
2017-07-19T19:49:15.717Z,32.85
2017-07-19T19:51:40.789Z,32.95
2017-07-19T19:54:05.919Z,32.83
2017-07-19T19:56:22.509Z,32.85
2017-07-19T19:58:47.495Z,32.66
2017-07-19T20:00:57.745Z,32.73
2017-07-19T20:03:22.791Z,32.39
2017-07-19T20:05:47.833Z,32.45
2017-07-19T20:08:10.522Z,32.17
2017-07-19T20:10:35.588Z,32.3
2017-07-19T20:13:00.558Z,31.97
2017-07-19T20:15:25.629Z,31.95
2017-07-19T20:17:51.109Z,32.23
2017-07-19T20:20:16.156Z,32.29
2017-07-19T20:22:41.097Z,32.16
2017-07-19T20:24:42.701Z,32.3
2017-07-19T20:27:07.796Z,32.35
2017-07-19T20:29:32.874Z,32.26
2017-07-19T20:32:00.920Z,32.3
2017-07-19T20:34:27.061Z,32.19
2017-07-19T20:36:52.040Z,32.22
2017-07-19T20:39:17.042Z,32.15
2017-07-19T20:41:42.094Z,32.22
2017-07-19T20:44:06.967Z,32.2
2017-07-19T20:46:31.998Z,32.17
2017-07-19T20:48:56.960Z,32.19
2017-07-19T20:51:22.078Z,32.16
2017-07-19T20:53:47.177Z,32.09
2017-07-19T20:56:12.189Z,32.12
2017-07-19T20:58:22.896Z,32.09
2017-07-19T21:00:47.920Z,32.01
2017-07-19T21:03:12.938Z,32.08
2017-07-19T21:05:37.898Z,32.02
2017-07-19T21:08:02.846Z,32.01
2017-07-19T21:10:28.226Z,31.93
2017-07-19T21:12:53.070Z,31.98
2017-07-19T21:15:09.495Z,31.95
2017-07-19T21:17:34.468Z,31.92
2017-07-19T21:19:59.419Z,31.77
2017-07-19T21:22:24.354Z,31.73
2017-07-19T21:24:49.284Z,31.72
2017-07-19T21:27:14.350Z,31.51
2017-07-19T21:29:40.068Z,31.48
2017-07-19T21:32:04.220Z,31.36
2017-07-19T21:34:29.313Z,31.35
2017-07-19T21:36:54.304Z,31.42
2017-07-19T21:39:19.303Z,31.52
2017-07-19T21:41:21.666Z,31.28
2017-07-19T21:43:46.677Z,31.32
2017-07-19T21:46:11.598Z,31.28
2017-07-19T21:48:36.548Z,31.39
2017-07-19T21:50:53.017Z,31.11
2017-07-19T21:53:17.982Z,31.13
2017-07-19T21:55:42.917Z,30.89
2017-07-19T21:58:07.898Z,30.81
2017-07-19T22:00:32.895Z,30.83
2017-07-19T22:02:57.896Z,30.63
2017-07-19T22:05:22.901Z,30.44
2017-07-19T22:07:47.901Z,30.48
2017-07-19T22:10:12.808Z,30.43
2017-07-19T22:12:37.703Z,30.17
2017-07-19T22:15:02.608Z,30.24
2017-07-19T22:17:18.996Z,30.13
2017-07-19T22:19:43.911Z,30.11
2017-07-19T22:22:08.805Z,30.16
2017-07-19T22:24:34.639Z,30.05
2017-07-19T22:26:59.535Z,30.05
2017-07-19T22:29:24.439Z,29.87
2017-07-19T22:31:40.734Z,29.9
2017-07-19T22:33:57.137Z,29.74
2017-07-19T22:36:13.438Z,29.71
2017-07-19T22:38:38.239Z,29.64
2017-07-19T22:41:03.037Z,29.47
2017-07-19T22:43:27.834Z,29.52
2017-07-19T22:45:52.633Z,29.32
2017-07-19T22:48:17.434Z,29.49
2017-07-19T22:50:42.231Z,29.62
2017-07-19T22:52:58.633Z,29.64
2017-07-19T22:55:14.922Z,29.34
2017-07-19T22:57:16.473Z,29.42
2017-07-19T22:59:24.240Z,29.47
2017-07-19T23:01:48.975Z,29.35
2017-07-19T23:04:13.657Z,29.39
2017-07-19T23:06:38.358Z,29.28
2017-07-19T23:08:54.678Z,29.25
2017-07-19T23:11:19.472Z,29.21
2017-07-19T23:13:35.772Z,29.3
2017-07-19T23:15:43.572Z,29.37
2017-07-19T23:18:08.376Z,29.13
2017-07-19T23:20:33.172Z,29.21
2017-07-19T23:22:57.966Z,29.21
2017-07-19T23:25:22.769Z,29.28
2017-07-19T23:27:39.067Z,29.28
2017-07-19T23:30:03.772Z,29.28
2017-07-19T23:32:28.457Z,29.15
2017-07-19T23:34:53.247Z,29.24
2017-07-19T23:37:18.057Z,29.07
2017-07-19T23:39:42.857Z,29.1
2017-07-19T23:42:07.656Z,29.25
2017-07-19T23:44:32.450Z,29.28
2017-07-19T23:46:57.255Z,29.15
2017-07-19T23:49:22.054Z,29.12
2017-07-19T23:51:46.852Z,28.96
2017-07-19T23:54:11.651Z,28.94
2017-07-19T23:56:36.355Z,29.13
2017-07-19T23:58:46.451Z,28.93
